Time,TemperatureF,DewpointF,PressureIn,WindDirection,WindDirectionDegrees,WindSpeedMPH,WindSpeedGustMPH,Humidity,HourlyPrecipIn,Conditions,Clouds,dailyrainin,SoftwareType,DateUTC
2013-03-15 00:00:00,30.5,20.1,30.18,West,267,0.0,0.0,65,0.00,,,0.00,Wunderground v.1.15,2013-03-15 04:00:00,
2013-03-15 00:10:00,30.2,19.8,30.18,West,267,0.0,0.0,65,0.00,,,0.00,Wunderground v.1.15,2013-03-15 04:10:00,
2013-03-15 00:20:00,30.2,20.6,30.18,West,267,0.0,0.0,67,0.00,,,0.00,Wunderground v.1.15,2013-03-15 04:20:00,
2013-03-15 00:30:00,30.1,20.8,30.19,West,267,0.0,0.0,68,0.00,,,0.00,Wunderground v.1.15,2013-03-15 04:30:00,
2013-03-15 00:40:00,29.7,20.4,30.19,West,267,0.0,0.0,68,0.00,,,0.00,Wunderground v.1.15,2013-03-15 04:40:00,
2013-03-15 00:50:00,29.5,20.2,30.19,West,267,0.0,0.0,68,0.00,,,0.00,Wunderground v.1.15,2013-03-15 04:50:00,
2013-03-15 01:00:00,29.3,20.4,30.19,West,267,0.0,0.0,69,0.00,,,0.00,Wunderground v.1.15,2013-03-15 05:00:00,
2013-03-15 01:10:00,29.1,20.2,30.19,West,267,0.0,0.0,69,0.00,,,0.00,Wunderground v.1.15,2013-03-15 05:10:00,
2013-03-15 01:20:00,29.0,20.1,30.20,West,267,0.0,0.0,69,0.00,,,0.00,Wunderground v.1.15,2013-03-15 05:20:00,
2013-03-15 01:30:00,28.8,19.9,30.19,West,267,0.0,0.0,69,0.00,,,0.00,Wunderground v.1.15,2013-03-15 05:30:00,
2013-03-15 01:40:00,28.7,20.1,30.19,West,267,0.0,0.0,70,0.00,,,0.00,Wunderground v.1.15,2013-03-15 05:40:00,
2013-03-15 01:50:00,28.7,19.8,30.19,West,267,0.0,0.0,69,0.00,,,0.00,Wunderground v.1.15,2013-03-15 05:50:00,
2013-03-15 02:00:00,29.1,20.9,30.19,West,267,0.0,0.0,71,0.00,,,0.00,Wunderground v.1.15,2013-03-15 06:00:00,
2013-03-15 02:10:00,29.5,20.9,30.19,West,267,0.0,0.0,70,0.00,,,0.00,Wunderground v.1.15,2013-03-15 06:10:00,
2013-03-15 02:20:00,29.3,20.7,30.19,West,267,0.0,0.0,70,0.00,,,0.00,Wunderground v.1.15,2013-03-15 06:20:00,
2013-03-15 02:30:00,28.9,20.3,30.19,West,267,0.0,0.0,70,0.00,,,0.00,Wunderground v.1.15,2013-03-15 06:30:00,
2013-03-15 02:40:00,28.7,20.5,30.19,West,267,0.0,0.0,71,0.00,,,0.00,Wunderground v.1.15,2013-03-15 06:40:00,
2013-03-15 02:50:00,28.6,20.4,30.19,West,267,0.0,0.0,71,0.00,,,0.00,Wunderground v.1.15,2013-03-15 06:50:00,
2013-03-15 03:00:00,28.3,20.7,30.18,West,267,0.0,0.0,73,0.00,,,0.00,Wunderground v.1.15,2013-03-15 07:00:00,
2013-03-15 03:10:00,27.9,20.4,30.18,West,267,0.0,0.0,73,0.00,,,0.00,Wunderground v.1.15,2013-03-15 07:10:00,
2013-03-15 09:40:00,34.2,27.4,30.20,West,267,0.0,0.0,76,0.00,,,0.00,Wunderground v.1.15,2013-03-15 13:40:00,
2013-03-15 09:50:00,36.5,27.6,30.20,West,265,0.0,2.0,70,0.00,,,0.00,Wunderground v.1.15,2013-03-15 13:50:00,
2013-03-15 10:00:00,38.9,28.1,30.20,West,265,1.0,1.0,65,0.00,,,0.00,Wunderground v.1.15,2013-03-15 14:00:00,
2013-03-15 10:10:00,40.8,28.4,30.19,WSW,244,1.0,1.0,61,0.00,,,0.00,Wunderground v.1.15,2013-03-15 14:10:00,
2013-03-15 10:20:00,42.2,27.6,30.19,WSW,241,1.0,1.0,56,0.00,,,0.00,Wunderground v.1.15,2013-03-15 14:20:00,
2013-03-15 10:30:00,43.4,27.8,30.18,West,269,1.0,1.0,54,0.00,,,0.00,Wunderground v.1.15,2013-03-15 14:30:00,
2013-03-15 10:40:00,44.6,27.6,30.18,SW,234,1.0,1.0,51,0.00,,,0.00,Wunderground v.1.15,2013-03-15 14:40:00,
2013-03-15 10:50:00,45.7,27.6,30.18,West,273,2.0,4.0,49,0.00,,,0.00,Wunderground v.1.15,2013-03-15 14:50:00,
2013-03-15 11:00:00,46.8,28.6,30.17,SSW,205,2.0,2.0,49,0.00,,,0.00,Wunderground v.1.15,2013-03-15 15:00:00,
2013-03-15 11:10:00,47.7,27.9,30.17,West,281,2.0,2.0,46,0.00,,,0.00,Wunderground v.1.15,2013-03-15 15:10:00,
2013-03-15 11:20:00,49.0,29.1,30.16,West,260,2.0,2.0,46,0.00,,,0.00,Wunderground v.1.15,2013-03-15 15:20:00,
2013-03-15 11:30:00,50.3,29.2,30.15,WNW,283,2.0,3.0,44,0.00,,,0.00,Wunderground v.1.15,2013-03-15 15:30:00,
2013-03-15 11:40:00,50.8,29.1,30.14,SSW,213,3.0,4.0,43,0.00,,,0.00,Wunderground v.1.15,2013-03-15 15:40:00,
2013-03-15 11:50:00,51.5,30.3,30.14,SW,220,3.0,3.0,44,0.00,,,0.00,Wunderground v.1.15,2013-03-15 15:50:00,
2013-03-15 12:00:00,52.7,30.8,30.13,SW,235,3.0,7.0,43,0.00,,,0.00,Wunderground v.1.15,2013-03-15 16:00:00,
2013-03-15 12:10:00,53.2,31.3,30.13,SW,218,4.0,4.0,43,0.00,,,0.00,Wunderground v.1.15,2013-03-15 16:10:00,
2013-03-15 12:20:00,53.8,30.6,30.12,WNW,298,4.0,4.0,41,0.00,,,0.00,Wunderground v.1.15,2013-03-15 16:20:00,
2013-03-15 12:30:00,54.8,30.9,30.12,West,259,3.0,3.0,40,0.00,,,0.00,Wunderground v.1.15,2013-03-15 16:30:00,
2013-03-15 12:40:00,55.3,31.4,30.12,SW,223,2.0,3.0,40,0.00,,,0.00,Wunderground v.1.15,2013-03-15 16:40:00,
2013-03-15 12:50:00,55.8,32.4,30.11,SW,225,3.0,3.0,41,0.00,,,0.00,Wunderground v.1.15,2013-03-15 16:50:00,
2013-03-15 13:00:00,56.1,31.5,30.11,WSW,240,3.0,3.0,39,0.00,,,0.00,Wunderground v.1.15,2013-03-15 17:00:00,
2013-03-15 13:10:00,56.7,33.2,30.10,SE,134,3.0,3.0,41,0.00,,,0.00,Wunderground v.1.15,2013-03-15 17:10:00,
2013-03-15 13:20:00,56.7,32.0,30.09,West,271,4.0,4.0,39,0.00,,,0.00,Wunderground v.1.15,2013-03-15 17:20:00,
2013-03-15 13:30:00,57.6,33.4,30.09,WNW,283,3.0,4.0,40,0.00,,,0.00,Wunderground v.1.15,2013-03-15 17:30:00,
2013-03-15 13:40:00,57.7,33.5,30.09,SW,226,4.0,5.0,40,0.00,,,0.00,Wunderground v.1.15,2013-03-15 17:40:00,
2013-03-15 13:50:00,58.4,34.2,30.08,NNW,344,3.0,3.0,40,0.00,,,0.00,Wunderground v.1.15,2013-03-15 17:50:00,
2013-03-15 14:00:00,59.0,33.4,30.07,WSW,245,3.0,3.0,38,0.00,,,0.00,Wunderground v.1.15,2013-03-15 18:00:00,
2013-03-15 14:10:00,59.0,33.4,30.06,SSW,207,4.0,6.0,38,0.00,,,0.00,Wunderground v.1.15,2013-03-15 18:10:00,
2013-03-15 14:20:00,59.0,33.4,30.05,SW,232,4.0,4.0,38,0.00,,,0.00,Wunderground v.1.15,2013-03-15 18:20:00,
2013-03-15 14:30:00,59.3,33.0,30.03,SW,218,4.0,4.0,37,0.00,,,0.00,Wunderground v.1.15,2013-03-15 18:30:00,
2013-03-15 14:40:00,59.9,34.2,30.03,SW,229,3.0,3.0,38,0.00,,,0.00,Wunderground v.1.15,2013-03-15 18:40:00,
2013-03-15 14:50:00,59.8,34.1,30.02,SSW,199,4.0,7.0,38,0.00,,,0.00,Wunderground v.1.15,2013-03-15 18:50:00,
2013-03-15 15:00:00,59.9,34.2,30.01,SW,227,5.0,5.0,38,0.00,,,0.00,Wunderground v.1.15,2013-03-15 19:00:00,
2013-03-15 15:10:00,60.7,34.3,30.00,SW,218,3.0,3.0,37,0.00,,,0.00,Wunderground v.1.15,2013-03-15 19:10:00,
2013-03-15 15:20:00,60.6,34.8,30.00,SW,218,3.0,5.0,38,0.00,,,0.00,Wunderground v.1.15,2013-03-15 19:20:00,
2013-03-15 15:30:00,60.7,34.9,29.99,SSW,206,3.0,3.0,38,0.00,,,0.00,Wunderground v.1.15,2013-03-15 19:30:00,
2013-03-15 15:40:00,61.8,35.9,29.99,SW,217,3.0,5.0,38,0.00,,,0.00,Wunderground v.1.15,2013-03-15 19:40:00,
2013-03-15 15:50:00,62.2,36.3,29.98,SW,221,4.0,4.0,38,0.00,,,0.00,Wunderground v.1.15,2013-03-15 19:50:00,
2013-03-15 16:00:00,62.5,35.9,29.97,SW,221,3.0,3.0,37,0.00,,,0.00,Wunderground v.1.15,2013-03-15 20:00:00,
2013-03-15 16:10:00,61.9,36.0,29.97,SW,221,4.0,4.0,38,0.00,,,0.00,Wunderground v.1.15,2013-03-15 20:10:00,
2013-03-15 16:20:00,62.0,35.4,29.97,WSW,245,4.0,4.0,37,0.00,,,0.00,Wunderground v.1.15,2013-03-15 20:20:00,
2013-03-15 16:30:00,60.9,35.1,29.97,SSW,209,5.0,5.0,38,0.00,,,0.00,Wunderground v.1.15,2013-03-15 20:30:00,
2013-03-15 16:40:00,60.0,35.0,29.97,SW,214,4.0,4.0,39,0.00,,,0.00,Wunderground v.1.15,2013-03-15 20:40:00,
2013-03-15 16:50:00,59.5,34.5,29.96,West,265,4.0,4.0,39,0.00,,,0.00,Wunderground v.1.15,2013-03-15 20:50:00,
2013-03-15 17:00:00,59.0,34.7,29.96,WSW,258,3.0,9.0,40,0.00,,,0.00,Wunderground v.1.15,2013-03-15 21:00:00,
2013-03-15 17:10:00,59.0,35.3,29.95,SW,219,3.0,3.0,41,0.00,,,0.00,Wunderground v.1.15,2013-03-15 21:10:00,
2013-03-15 17:20:00,59.0,35.9,29.95,SSW,213,3.0,3.0,42,0.00,,,0.00,Wunderground v.1.15,2013-03-15 21:20:00,
2013-03-15 17:30:00,59.0,35.3,29.95,SW,228,3.0,3.0,41,0.00,,,0.00,Wunderground v.1.15,2013-03-15 21:30:00,
2013-03-15 17:40:00,59.1,36.0,29.95,SW,226,2.0,2.0,42,0.00,,,0.00,Wunderground v.1.15,2013-03-15 21:40:00,
2013-03-15 17:50:00,60.0,36.8,29.95,SW,232,2.0,3.0,42,0.00,,,0.00,Wunderground v.1.15,2013-03-15 21:50:00,
2013-03-15 18:00:00,60.7,36.8,29.95,SW,233,3.0,3.0,41,0.00,,,0.00,Wunderground v.1.15,2013-03-15 22:00:00,
2013-03-15 18:10:00,60.8,36.3,29.95,WSW,246,3.0,3.0,40,0.00,,,0.00,Wunderground v.1.15,2013-03-15 22:10:00,
2013-03-15 18:20:00,60.8,36.9,29.95,SW,236,3.0,3.0,41,0.00,,,0.00,Wunderground v.1.15,2013-03-15 22:20:00,
2013-03-15 18:30:00,60.2,35.8,29.94,SW,236,3.0,3.0,40,0.00,,,0.00,Wunderground v.1.15,2013-03-15 22:30:00,
2013-03-15 18:40:00,59.5,35.8,29.94,West,259,4.0,4.0,41,0.00,,,0.00,Wunderground v.1.15,2013-03-15 22:40:00,
2013-03-15 18:50:00,59.0,35.9,29.94,West,259,3.0,3.0,42,0.00,,,0.00,Wunderground v.1.15,2013-03-15 22:50:00,
2013-03-15 19:00:00,58.4,36.0,29.94,WSW,254,2.0,2.0,43,0.00,,,0.00,Wunderground v.1.15,2013-03-15 23:00:00,
2013-03-15 19:10:00,58.0,35.6,29.94,SW,234,2.0,2.0,43,0.00,,,0.00,Wunderground v.1.15,2013-03-15 23:10:00,
2013-03-15 19:20:00,57.2,35.5,29.94,SW,232,1.0,1.0,44,0.00,,,0.00,Wunderground v.1.15,2013-03-15 23:20:00,
2013-03-15 19:30:00,56.6,34.9,29.94,SW,232,1.0,1.0,44,0.00,,,0.00,Wunderground v.1.15,2013-03-15 23:30:00,
2013-03-15 19:40:00,56.1,35.0,29.94,SW,232,0.0,0.0,45,0.00,,,0.00,Wunderground v.1.15,2013-03-15 23:40:00,
2013-03-15 19:50:00,55.4,34.4,29.94,SW,232,0.0,0.0,45,0.00,,,0.00,Wunderground v.1.15,2013-03-15 23:50:00,
2013-03-15 20:00:00,54.6,34.8,29.95,SW,232,0.0,0.0,47,0.00,,,0.00,Wunderground v.1.15,2013-03-16 00:00:00,
2013-03-15 20:10:00,53.6,34.4,29.94,SW,232,0.0,0.0,48,0.00,,,0.00,Wunderground v.1.15,2013-03-16 00:10:00,
2013-03-15 20:20:00,52.6,34.5,29.94,SW,232,0.0,0.0,50,0.00,,,0.00,Wunderground v.1.15,2013-03-16 00:20:00,
2013-03-15 20:30:00,51.8,33.7,29.94,SW,232,0.0,0.0,50,0.00,,,0.00,Wunderground v.1.15,2013-03-16 00:30:00,
2013-03-15 20:40:00,51.0,34.0,29.94,SW,232,0.0,0.0,52,0.00,,,0.00,Wunderground v.1.15,2013-03-16 00:40:00,
2013-03-15 20:50:00,50.3,33.8,29.94,SW,232,0.0,0.0,53,0.00,,,0.00,Wunderground v.1.15,2013-03-16 00:50:00,
2013-03-15 21:00:00,49.7,33.2,29.94,SW,232,0.0,0.0,53,0.00,,,0.00,Wunderground v.1.15,2013-03-16 01:00:00,
2013-03-15 21:10:00,49.2,33.3,29.94,SW,232,0.0,0.0,54,0.00,,,0.00,Wunderground v.1.15,2013-03-16 01:10:00,
2013-03-15 21:20:00,48.6,33.1,29.93,SW,232,0.0,0.0,55,0.00,,,0.00,Wunderground v.1.15,2013-03-16 01:20:00,
2013-03-15 21:30:00,48.2,33.2,29.93,SW,232,0.0,0.0,56,0.00,,,0.00,Wunderground v.1.15,2013-03-16 01:30:00,
2013-03-15 21:40:00,47.6,33.1,29.93,SW,232,0.0,0.0,57,0.00,,,0.00,Wunderground v.1.15,2013-03-16 01:40:00,
2013-03-15 21:50:00,47.1,33.1,29.93,SW,232,0.0,0.0,58,0.00,,,0.00,Wunderground v.1.15,2013-03-16 01:50:00,
2013-03-15 22:00:00,46.6,33.0,29.93,SW,232,0.0,0.0,59,0.00,,,0.00,Wunderground v.1.15,2013-03-16 02:00:00,
2013-03-15 22:10:00,45.9,32.8,29.93,SW,232,0.0,0.0,60,0.00,,,0.00,Wunderground v.1.15,2013-03-16 02:10:00,
2013-03-15 22:20:00,45.4,32.7,29.93,SW,232,0.0,0.0,61,0.00,,,0.00,Wunderground v.1.15,2013-03-16 02:20:00,
2013-03-15 22:30:00,45.4,33.1,29.93,SW,232,0.0,0.0,62,0.00,,,0.00,Wunderground v.1.15,2013-03-16 02:30:00,
2013-03-15 22:40:00,45.6,33.3,29.93,SW,232,0.0,0.0,62,0.00,,,0.00,Wunderground v.1.15,2013-03-16 02:40:00,
2013-03-15 22:50:00,45.4,33.5,29.93,SW,232,0.0,0.0,63,0.00,,,0.00,Wunderground v.1.15,2013-03-16 02:50:00,
2013-03-15 23:00:00,46.4,34.5,29.92,SW,232,0.0,0.0,63,0.00,,,0.00,Wunderground v.1.15,2013-03-16 03:00:00,
2013-03-15 23:10:00,47.4,35.0,29.92,SW,233,0.0,0.0,62,0.00,,,0.00,Wunderground v.1.15,2013-03-16 03:10:00,
2013-03-15 23:20:00,47.7,34.9,29.92,SW,233,0.0,0.0,61,0.00,,,0.00,Wunderground v.1.15,2013-03-16 03:20:00,
2013-03-15 23:30:00,47.7,34.9,29.92,SW,233,0.0,0.0,61,0.00,,,0.00,Wunderground v.1.15,2013-03-16 03:30:00,
2013-03-15 23:40:00,47.4,34.6,29.92,SW,233,0.0,0.0,61,0.00,,,0.00,Wunderground v.1.15,2013-03-16 03:40:00,
2013-03-15 23:50:00,47.3,34.5,29.92,SW,233,0.0,0.0,61,0.00,,,0.00,Wunderground v.1.15,2013-03-16 03:50:00,